createdAt,value
2022-09-10T00:00:19.072Z,14.90
2022-09-10T00:01:19.075Z,14.87
2022-09-10T00:02:19.043Z,14.89
2022-09-10T00:03:19.042Z,14.90
2022-09-10T00:04:19.012Z,14.87
2022-09-10T00:05:19.009Z,14.87
2022-09-10T00:06:18.999Z,14.86
2022-09-10T00:07:18.972Z,14.86
2022-09-10T00:08:18.962Z,14.89
2022-09-10T00:09:18.953Z,14.89
2022-09-10T00:10:18.930Z,14.89
2022-09-10T00:11:18.923Z,14.85
2022-09-10T00:12:18.903Z,14.83
2022-09-10T00:13:18.904Z,14.82
2022-09-10T00:14:18.883Z,14.83
2022-09-10T00:15:18.872Z,14.83
2022-09-10T00:16:18.859Z,14.85
2022-09-10T00:17:18.844Z,14.79
2022-09-10T00:18:18.835Z,14.83
2022-09-10T00:19:18.815Z,14.82
2022-09-10T00:20:18.815Z,14.82
2022-09-10T00:21:18.786Z,14.82
2022-09-10T00:22:18.767Z,14.82
2022-09-10T00:23:18.767Z,14.79
2022-09-10T00:24:18.787Z,14.82
2022-09-10T00:25:18.745Z,14.78
2022-09-10T00:26:18.718Z,14.83
2022-09-10T00:27:18.715Z,14.82
2022-09-10T00:28:18.718Z,14.87
2022-09-10T00:29:18.678Z,14.86
2022-09-10T00:30:18.658Z,14.83
2022-09-10T00:31:18.691Z,14.87
2022-09-10T00:32:18.647Z,14.85
2022-09-10T00:33:18.641Z,14.86
2022-09-10T00:34:18.610Z,14.85
2022-09-10T00:35:18.600Z,14.89
2022-09-10T00:36:18.589Z,14.89
2022-09-10T00:37:18.573Z,14.90
2022-09-10T00:38:18.574Z,14.92
2022-09-10T00:39:18.551Z,14.93
2022-09-10T00:40:18.533Z,14.96
2022-09-10T00:41:18.543Z,14.92
2022-09-10T00:42:18.503Z,14.92
2022-09-10T00:43:18.514Z,14.92
2022-09-10T00:44:18.480Z,14.93
2022-09-10T00:45:18.469Z,14.92
2022-09-10T00:46:18.455Z,14.95
2022-09-10T00:47:18.445Z,14.93
2022-09-10T00:48:18.439Z,14.92
2022-09-10T00:49:18.424Z,14.90
2022-09-10T00:50:18.403Z,14.89
2022-09-10T00:51:18.392Z,14.90
2022-09-10T00:52:18.375Z,14.90
2022-09-10T00:53:18.376Z,14.86
2022-09-10T00:54:18.346Z,14.83
2022-09-10T00:55:18.345Z,14.86
2022-09-10T00:56:18.327Z,14.86
2022-09-10T00:57:18.314Z,14.86
2022-09-10T00:58:18.297Z,14.85
2022-09-10T00:59:18.285Z,14.85
2022-09-10T01:00:18.268Z,14.82
2022-09-10T01:01:18.262Z,14.79
2022-09-10T01:02:19.268Z,14.77
2022-09-10T01:03:19.705Z,14.78
2022-09-10T01:04:18.219Z,14.78
2022-09-10T01:05:18.211Z,14.73
2022-09-10T01:06:18.188Z,14.71
2022-09-10T01:07:18.190Z,14.69
2022-09-10T01:08:18.171Z,14.71
2022-09-10T01:09:18.161Z,14.71
2022-09-10T01:10:18.130Z,14.66
2022-09-10T01:11:18.121Z,14.69
2022-09-10T01:12:18.109Z,14.66
2022-09-10T01:13:18.131Z,14.64
2022-09-10T01:14:18.083Z,14.69
2022-09-10T01:15:18.073Z,14.63
2022-09-10T01:16:18.112Z,14.61
2022-09-10T01:17:18.055Z,14.61
2022-09-10T01:18:18.985Z,14.58
2022-09-10T01:19:18.020Z,14.53
2022-09-10T01:20:18.005Z,14.55
2022-09-10T01:21:17.996Z,14.52
2022-09-10T01:22:18.932Z,14.52
2022-09-10T01:23:18.176Z,14.53
2022-09-10T01:24:17.945Z,14.51
2022-09-10T01:25:17.936Z,14.48
2022-09-10T01:26:17.926Z,14.49
2022-09-10T01:27:17.907Z,14.48
2022-09-10T01:28:17.906Z,14.44
2022-09-10T01:29:17.887Z,14.46
2022-09-10T01:30:17.880Z,14.45
2022-09-10T01:31:17.905Z,14.46
2022-09-10T01:32:17.848Z,14.44
2022-09-10T01:33:17.837Z,14.40
2022-09-10T01:34:17.818Z,14.40
2022-09-10T01:36:27.020Z,14.38
2022-09-10T01:37:27.000Z,14.38
2022-09-10T01:38:27.000Z,14.36
2022-09-10T01:39:26.971Z,14.36
2022-09-10T01:40:26.961Z,14.34
2022-09-10T01:41:26.941Z,14.33
2022-09-10T01:42:26.949Z,14.30
2022-09-10T01:43:26.924Z,14.34
2022-09-10T01:44:26.915Z,14.30
2022-09-10T01:45:26.930Z,14.27
2022-09-10T01:46:26.882Z,14.30
2022-09-10T01:47:26.874Z,14.27
2022-09-10T01:48:26.864Z,14.27
2022-09-10T01:49:26.846Z,14.28
2022-09-10T01:50:26.835Z,14.27
2022-09-10T01:51:26.823Z,14.26
2022-09-10T01:52:26.815Z,14.27
2022-09-10T01:53:26.786Z,14.23
2022-09-10T01:54:26.776Z,14.26
2022-09-10T01:55:26.766Z,14.26
2022-09-10T01:56:26.757Z,14.23
2022-09-10T01:57:26.746Z,14.27
2022-09-10T01:58:26.727Z,14.26
2022-09-10T01:59:26.707Z,14.23
2022-09-10T02:00:26.697Z,14.21
2022-09-10T02:01:26.688Z,14.23
2022-09-10T02:02:26.687Z,14.21
2022-09-10T02:03:26.660Z,14.21
2022-09-10T02:04:26.648Z,14.21
2022-09-10T02:05:26.637Z,14.18
2022-09-10T02:06:26.624Z,14.21
2022-09-10T02:07:26.619Z,14.21
2022-09-10T02:08:26.591Z,14.22
2022-09-10T02:09:26.582Z,14.19
2022-09-10T02:10:26.570Z,14.21
2022-09-10T02:11:26.561Z,14.19
2022-09-10T02:12:26.551Z,14.21
2022-09-10T02:13:26.532Z,14.19
2022-09-10T02:14:26.512Z,14.18
2022-09-10T02:15:26.502Z,14.18
2022-09-10T02:16:26.497Z,14.16
2022-09-10T02:17:26.494Z,14.16
2022-09-10T02:18:26.462Z,14.19
2022-09-10T02:19:26.454Z,14.19
2022-09-10T02:20:26.433Z,14.19
2022-09-10T02:21:26.424Z,14.18
2022-09-10T02:22:26.423Z,14.13
2022-09-10T02:23:26.401Z,14.13
2022-09-10T02:24:26.384Z,14.11
2022-09-10T02:25:26.375Z,14.09
2022-09-10T02:26:26.355Z,14.09
2022-09-10T02:27:26.356Z,14.09
2022-09-10T02:28:26.336Z,14.05
2022-09-10T02:29:26.323Z,14.08
2022-09-10T02:30:26.309Z,14.09
2022-09-10T02:31:26.326Z,14.08
2022-09-10T02:32:26.286Z,14.05
2022-09-10T02:33:26.270Z,14.08
2022-09-10T02:34:26.254Z,14.08
2022-09-10T02:35:26.252Z,14.01
2022-09-10T02:36:26.236Z,14.05
2022-09-10T02:37:26.228Z,14.03
2022-09-10T02:38:26.198Z,14.04
2022-09-10T02:39:26.197Z,14.03
2022-09-10T02:40:26.179Z,14.01
2022-09-10T02:41:26.164Z,14.01
2022-09-10T02:42:26.159Z,14.00
2022-09-10T02:43:26.142Z,14.00
2022-09-10T02:44:26.120Z,14.00
2022-09-10T02:45:26.168Z,14.00
2022-09-10T02:46:26.101Z,13.98
2022-09-10T02:47:26.093Z,13.96
2022-09-10T02:48:26.073Z,13.98
2022-09-10T02:49:27.022Z,13.96
2022-09-10T02:50:26.042Z,13.98
2022-09-10T02:51:26.033Z,13.94
2022-09-10T02:52:26.022Z,13.90
2022-09-10T02:53:26.005Z,13.91
2022-09-10T02:54:25.987Z,13.90
2022-09-10T02:55:25.983Z,13.91
2022-09-10T02:56:25.963Z,13.91
2022-09-10T02:57:25.964Z,13.91
2022-09-10T02:58:25.947Z,13.91
2022-09-10T02:59:25.924Z,13.90
2022-09-10T03:00:25.914Z,13.90
2022-09-10T03:01:25.959Z,13.91
2022-09-10T03:02:25.932Z,13.90
2022-09-10T03:03:25.877Z,13.90
2022-09-10T03:04:25.867Z,13.93
2022-09-10T03:05:25.890Z,13.90
2022-09-10T03:06:25.839Z,13.90
2022-09-10T03:07:25.828Z,13.91
2022-09-10T03:08:25.807Z,13.88
2022-09-10T03:09:25.797Z,13.88
2022-09-10T03:10:25.778Z,13.88
2022-09-10T03:11:25.780Z,13.90
2022-09-10T03:12:25.768Z,13.88
2022-09-10T03:13:25.739Z,13.82
2022-09-10T03:14:25.736Z,13.82
2022-09-10T03:15:25.716Z,13.83
2022-09-10T03:16:25.720Z,13.83
2022-09-10T03:17:25.700Z,13.86
2022-09-10T03:18:25.670Z,13.88
2022-09-10T03:19:25.682Z,13.83
2022-09-10T03:20:25.665Z,13.83
2022-09-10T03:21:25.641Z,13.86
2022-09-10T03:22:25.633Z,13.86
2022-09-10T03:23:25.623Z,13.86
2022-09-10T03:24:25.599Z,13.86
2022-09-10T03:25:25.589Z,13.83
2022-09-10T03:26:25.604Z,13.83
2022-09-10T03:27:25.572Z,13.82
2022-09-10T03:28:25.544Z,13.80
2022-09-10T03:29:25.533Z,13.79
2022-09-10T03:30:25.527Z,13.80
2022-09-10T03:31:25.532Z,13.79
2022-09-10T03:32:25.502Z,13.78
2022-09-10T03:33:25.484Z,13.78
2022-09-10T03:34:25.464Z,13.72
2022-09-10T03:35:25.455Z,13.71
2022-09-10T03:36:25.436Z,13.75
2022-09-10T03:37:25.436Z,13.71
2022-09-10T03:38:25.415Z,13.68
2022-09-10T03:39:25.407Z,13.71
2022-09-10T03:40:25.386Z,13.67
2022-09-10T03:41:25.374Z,13.65
2022-09-10T03:42:25.375Z,13.64
2022-09-10T03:43:25.347Z,13.63
2022-09-10T03:44:25.336Z,13.63
2022-09-10T03:45:25.378Z,13.61
2022-09-10T03:46:25.308Z,13.64
2022-09-10T03:47:25.305Z,13.58
2022-09-10T03:48:25.280Z,13.60
2022-09-10T03:49:25.269Z,13.58
2022-09-10T03:50:25.249Z,13.57
2022-09-10T03:51:25.250Z,13.60
2022-09-10T03:52:25.245Z,13.58
2022-09-10T03:53:25.217Z,13.57
2022-09-10T03:54:25.200Z,13.57
2022-09-10T03:55:26.150Z,13.55
2022-09-10T03:56:25.171Z,13.55
2022-09-10T03:57:25.172Z,13.54
2022-09-10T03:58:25.174Z,13.55
2022-09-10T03:59:25.225Z,13.53
2022-09-10T04:00:25.122Z,13.57
2022-09-10T04:01:25.150Z,13.54
2022-09-10T04:02:25.121Z,13.49
2022-09-10T04:03:26.045Z,13.49
2022-09-10T04:04:25.073Z,13.47
2022-09-10T04:05:25.064Z,13.46
2022-09-10T04:06:25.056Z,13.45
2022-09-10T04:07:25.042Z,13.47
2022-09-10T04:08:25.014Z,13.49
2022-09-10T04:09:25.006Z,13.46
2022-09-10T04:10:24.993Z,13.47
2022-09-10T04:11:24.982Z,13.47
2022-09-10T04:12:24.976Z,13.45
2022-09-10T04:13:24.956Z,13.47
2022-09-10T04:14:24.938Z,13.51
2022-09-10T04:15:24.923Z,13.51
2022-09-10T04:16:24.942Z,13.53
2022-09-10T04:17:24.916Z,13.54
2022-09-10T04:18:24.889Z,13.58
2022-09-10T04:19:24.904Z,13.60
2022-09-10T04:20:24.858Z,13.60
2022-09-10T04:21:24.867Z,13.61
2022-09-10T04:22:24.832Z,13.64
2022-09-10T04:23:24.826Z,13.65
2022-09-10T04:24:24.809Z,13.65
2022-09-10T04:25:24.801Z,13.72
2022-09-10T04:26:24.791Z,13.75
2022-09-10T04:27:24.770Z,13.76
2022-09-10T04:28:24.759Z,13.79
2022-09-10T04:29:24.741Z,13.80
2022-09-10T04:30:24.729Z,13.85
2022-09-10T04:31:24.774Z,13.85
2022-09-10T04:32:24.701Z,13.85
2022-09-10T04:33:24.691Z,13.88
2022-09-10T04:34:24.672Z,13.91
2022-09-10T04:35:24.663Z,13.96
2022-09-10T04:36:24.652Z,13.98
2022-09-10T04:37:24.641Z,13.93
2022-09-10T04:38:24.623Z,13.94
2022-09-10T04:39:24.613Z,13.97
2022-09-10T04:40:24.596Z,13.96
2022-09-10T04:41:24.603Z,13.94
2022-09-10T04:42:24.574Z,13.98
2022-09-10T04:43:24.565Z,13.98
2022-09-10T04:44:24.545Z,13.97
2022-09-10T04:45:24.535Z,13.97
2022-09-10T04:46:24.525Z,13.96
2022-09-10T04:47:24.514Z,13.98
2022-09-10T04:48:24.496Z,13.98
2022-09-10T04:49:24.476Z,13.98
2022-09-10T04:50:24.476Z,13.96
2022-09-10T04:51:24.474Z,13.98
2022-09-10T04:52:24.439Z,13.98
2022-09-10T04:53:24.428Z,14.01
2022-09-10T04:54:24.415Z,13.98
2022-09-10T04:55:24.417Z,13.97
2022-09-10T04:56:24.388Z,13.98
2022-09-10T04:57:24.378Z,13.97
2022-09-10T04:58:24.359Z,13.96
2022-09-10T04:59:24.349Z,13.93
2022-09-10T05:00:24.344Z,13.94
2022-09-10T05:01:24.357Z,13.93
2022-09-10T05:02:24.347Z,13.94
2022-09-10T05:03:24.301Z,13.93
2022-09-10T05:04:24.293Z,13.97
2022-09-10T05:05:24.291Z,13.98
2022-09-10T05:06:24.253Z,14.01
2022-09-10T05:07:24.251Z,14.03
2022-09-10T05:08:24.231Z,14.04
2022-09-10T05:09:24.221Z,14.08
2022-09-10T05:10:24.212Z,14.09
2022-09-10T05:11:24.192Z,14.15
2022-09-10T05:12:24.177Z,14.19
2022-09-10T05:13:24.175Z,14.23
2022-09-10T05:14:24.153Z,14.26
2022-09-10T05:15:24.150Z,14.30
2022-09-10T05:16:24.155Z,14.37
2022-09-10T05:17:24.121Z,14.40
2022-09-10T05:18:24.114Z,14.41
2022-09-10T05:19:24.110Z,14.46
2022-09-10T05:20:24.085Z,14.51
2022-09-10T05:21:24.072Z,14.53
2022-09-10T05:22:24.047Z,14.51
2022-09-10T05:23:24.037Z,14.53
2022-09-10T05:24:24.016Z,14.53
2022-09-10T05:25:24.018Z,14.56
2022-09-10T05:26:23.997Z,14.56
2022-09-10T05:27:23.980Z,14.56
2022-09-10T05:28:23.967Z,14.61
2022-09-10T05:29:23.955Z,14.59
2022-09-10T05:30:23.969Z,14.64
2022-09-10T05:31:23.950Z,14.63
2022-09-10T05:32:23.909Z,14.66
2022-09-10T05:33:23.899Z,14.66
2022-09-10T05:34:23.880Z,14.69
2022-09-10T05:35:23.886Z,14.70
2022-09-10T05:36:23.868Z,14.74
2022-09-10T05:37:23.851Z,14.78
2022-09-10T05:38:23.831Z,14.85
2022-09-10T05:39:23.821Z,14.89
2022-09-10T05:40:23.811Z,14.93
2022-09-10T05:41:23.799Z,14.97
2022-09-10T05:42:23.781Z,15.03
2022-09-10T05:43:23.769Z,15.04
2022-09-10T05:44:23.765Z,15.10
2022-09-10T05:45:23.743Z,15.12
2022-09-10T05:46:23.723Z,15.19
2022-09-10T05:47:23.714Z,15.20
2022-09-10T05:48:23.704Z,15.20
2022-09-10T05:49:23.703Z,15.30
2022-09-10T05:50:23.674Z,15.33
2022-09-10T05:51:23.662Z,15.35
2022-09-10T05:52:23.644Z,15.38
2022-09-10T05:53:23.635Z,15.40
2022-09-10T05:54:23.625Z,15.43
2022-09-10T05:55:23.612Z,15.43
2022-09-10T05:56:23.596Z,15.47
2022-09-10T05:57:23.577Z,15.50
2022-09-10T05:58:23.567Z,15.52
2022-09-10T05:59:23.567Z,15.56
2022-09-10T06:00:23.547Z,15.60
2022-09-10T06:01:23.528Z,15.63
2022-09-10T06:02:24.416Z,15.72
2022-09-10T06:03:23.537Z,15.76
2022-09-10T06:04:23.488Z,15.85
2022-09-10T06:05:23.475Z,15.87
2022-09-10T06:06:23.459Z,16.00
2022-09-10T06:07:24.399Z,16.05
2022-09-10T06:08:23.429Z,16.08
2022-09-10T06:09:23.425Z,16.16
2022-09-10T06:10:23.410Z,16.21
2022-09-10T06:11:23.391Z,16.26
2022-09-10T06:12:23.371Z,16.34
2022-09-10T06:13:23.371Z,16.37
2022-09-10T06:14:23.342Z,16.39
2022-09-10T06:15:23.338Z,16.40
2022-09-10T06:16:23.332Z,16.37
2022-09-10T06:17:23.312Z,16.42
2022-09-10T06:18:23.302Z,16.51
2022-09-10T06:19:23.283Z,16.52
2022-09-10T06:20:23.315Z,16.61
2022-09-10T06:21:27.987Z,16.64
2022-09-10T06:22:24.243Z,16.65
2022-09-10T06:23:23.234Z,16.70
2022-09-10T06:24:24.166Z,16.65
2022-09-10T06:25:23.196Z,16.61
2022-09-10T06:26:23.185Z,16.58
2022-09-10T06:27:23.173Z,16.64
2022-09-10T06:28:23.165Z,16.67
2022-09-10T06:29:23.143Z,16.64
2022-09-10T06:30:23.137Z,16.70
2022-09-10T06:31:23.117Z,16.72
2022-09-10T06:32:23.108Z,16.80
2022-09-10T06:33:23.098Z,16.87
2022-09-10T06:34:23.078Z,16.90
2022-09-10T06:35:23.057Z,16.95
2022-09-10T06:36:23.060Z,16.99
2022-09-10T06:37:23.035Z,17.02
2022-09-10T06:38:23.029Z,17.09
2022-09-10T06:39:23.009Z,17.12
2022-09-10T06:40:22.999Z,17.12
2022-09-10T06:41:22.981Z,17.19
2022-09-10T06:42:22.970Z,17.25
2022-09-10T06:43:22.961Z,17.31
2022-09-10T06:44:22.959Z,17.37
2022-09-10T06:45:22.931Z,17.32
2022-09-10T06:47:02.849Z,17.35
2022-09-10T06:48:12.845Z,17.34
2022-09-10T06:48:42.241Z,17.37
2022-09-10T06:49:23.872Z,17.39
2022-09-10T06:50:22.864Z,17.46
2022-09-10T06:51:22.843Z,17.50
2022-09-10T06:52:22.854Z,17.59
2022-09-10T06:53:22.827Z,17.57
2022-09-10T06:54:22.805Z,17.59
2022-09-10T06:55:22.794Z,17.53
2022-09-10T06:56:22.775Z,17.50
2022-09-10T06:57:22.774Z,17.52
2022-09-10T06:58:22.763Z,17.56
2022-09-10T06:59:22.743Z,17.53
2022-09-10T07:00:22.727Z,17.59
2022-09-10T07:01:22.776Z,17.62
2022-09-10T07:02:22.786Z,17.59
2022-09-10T07:03:22.699Z,17.59
2022-09-10T07:04:22.690Z,17.68
2022-09-10T07:05:22.679Z,17.56
2022-09-10T07:06:22.663Z,17.54
2022-09-10T07:07:22.639Z,17.68
2022-09-10T07:08:22.631Z,17.68
2022-09-10T07:09:22.599Z,17.71
2022-09-10T07:10:22.589Z,17.76
2022-09-10T07:11:22.589Z,17.79
2022-09-10T07:12:22.570Z,17.88
2022-09-10T07:13:22.561Z,17.91
2022-09-10T07:14:22.541Z,17.88
2022-09-10T07:15:22.524Z,17.87
2022-09-10T07:16:22.511Z,17.84
2022-09-10T07:17:22.501Z,17.79
2022-09-10T07:18:22.502Z,17.76
2022-09-10T07:19:22.505Z,17.75
2022-09-10T07:20:22.521Z,17.71
2022-09-10T07:21:22.447Z,17.68
2022-09-10T07:22:22.435Z,17.71
2022-09-10T07:23:22.424Z,17.72
2022-09-10T07:24:22.413Z,17.72
2022-09-10T07:25:22.396Z,17.69
2022-09-10T07:26:22.385Z,17.69
2022-09-10T07:27:22.365Z,17.72
2022-09-10T07:28:22.369Z,17.90
2022-09-10T07:29:22.336Z,17.88
2022-09-10T07:30:22.399Z,17.93
2022-09-10T07:31:22.354Z,17.87
2022-09-10T07:32:22.303Z,17.97
2022-09-10T07:33:22.288Z,18.03
2022-09-10T07:34:22.325Z,18.17
2022-09-10T07:35:22.265Z,18.28
2022-09-10T07:36:22.247Z,18.36
2022-09-10T07:37:22.240Z,18.45
2022-09-10T07:38:22.231Z,18.57
2022-09-10T07:39:25.504Z,18.71
2022-09-10T07:40:22.197Z,18.88
2022-09-10T07:41:22.181Z,18.93
2022-09-10T07:42:22.168Z,18.88
2022-09-10T07:43:22.153Z,18.94
2022-09-10T07:44:22.161Z,18.97
2022-09-10T07:45:22.132Z,19.01
2022-09-10T07:46:22.112Z,19.05
2022-09-10T07:47:22.103Z,19.05
2022-09-10T07:48:22.101Z,19.09
2022-09-10T07:49:22.084Z,19.19
2022-09-10T07:50:22.062Z,19.23
2022-09-10T07:51:22.053Z,19.30
2022-09-10T07:52:22.991Z,19.31
2022-09-10T07:53:22.023Z,19.34
2022-09-10T07:54:22.015Z,19.44
2022-09-10T07:55:21.995Z,19.49
2022-09-10T07:56:21.985Z,19.44
2022-09-10T07:57:21.966Z,19.42
2022-09-10T07:58:21.956Z,19.44
2022-09-10T07:59:21.946Z,19.47
2022-09-10T08:00:21.927Z,19.52
2022-09-10T08:01:21.988Z,19.53
2022-09-10T08:02:21.909Z,19.62
2022-09-10T08:03:21.888Z,19.78
2022-09-10T08:04:21.893Z,19.81
2022-09-10T08:05:21.858Z,19.71
2022-09-10T08:06:21.859Z,19.57
2022-09-10T08:07:21.836Z,19.42
2022-09-10T08:08:21.831Z,19.27
2022-09-10T08:09:21.811Z,19.15
2022-09-10T08:10:21.792Z,19.12
2022-09-10T08:11:21.781Z,19.00
2022-09-10T08:12:21.771Z,18.98
2022-09-10T08:13:21.761Z,19.04
2022-09-10T08:14:21.752Z,19.12
2022-09-10T08:15:21.723Z,19.04
2022-09-10T08:16:21.723Z,19.15
2022-09-10T08:17:21.703Z,19.15
2022-09-10T08:18:21.689Z,19.09
2022-09-10T08:19:21.684Z,19.16
2022-09-10T08:20:21.665Z,19.19
2022-09-10T08:21:21.644Z,19.19
2022-09-10T08:22:21.635Z,19.15
2022-09-10T08:23:21.625Z,19.05
2022-09-10T08:24:21.606Z,19.01
2022-09-10T08:25:21.596Z,19.00
2022-09-10T08:26:21.587Z,18.98
2022-09-10T08:27:21.566Z,19.09
2022-09-10T08:28:25.347Z,19.27
2022-09-10T08:29:21.538Z,19.50
2022-09-10T08:30:21.528Z,19.72
2022-09-10T08:31:21.551Z,19.96
2022-09-10T08:32:21.509Z,20.00
2022-09-10T08:33:21.499Z,19.93
2022-09-10T08:34:21.479Z,19.99
2022-09-10T08:35:21.460Z,20.05
2022-09-10T08:36:22.408Z,20.14
2022-09-10T08:37:21.431Z,20.23
2022-09-10T08:38:21.431Z,20.25
2022-09-10T08:39:21.411Z,20.15
2022-09-10T08:40:22.352Z,20.12
2022-09-10T08:41:21.381Z,20.00
2022-09-10T08:42:21.373Z,20.09
2022-09-10T08:43:21.362Z,20.09
2022-09-10T08:44:21.343Z,20.08
2022-09-10T08:45:21.323Z,20.14
2022-09-10T08:46:21.314Z,20.22
2022-09-10T08:47:21.307Z,20.33
2022-09-10T08:48:21.295Z,20.50
2022-09-10T08:49:21.275Z,20.50
2022-09-10T08:50:22.217Z,20.53
2022-09-10T08:51:21.246Z,20.63
2022-09-10T08:52:21.238Z,20.65
2022-09-10T08:53:21.230Z,20.65
2022-09-10T08:54:21.208Z,20.58
2022-09-10T08:55:21.192Z,20.74
2022-09-10T08:56:22.146Z,20.83
2022-09-10T08:57:21.168Z,20.89
2022-09-10T08:58:21.165Z,21.00
2022-09-10T08:59:21.141Z,21.10
2022-09-10T09:00:21.140Z,21.11
2022-09-10T09:01:21.152Z,21.11
2022-09-10T09:02:38.127Z,21.07
2022-09-10T09:03:22.155Z,21.11
2022-09-10T09:04:21.080Z,21.22
2022-09-10T09:05:21.060Z,21.40
2022-09-10T09:06:21.051Z,21.44
2022-09-10T09:07:21.033Z,21.44
2022-09-10T09:08:21.988Z,21.37
2022-09-10T09:09:21.012Z,21.29
2022-09-10T09:10:21.003Z,21.01
2022-09-10T09:11:20.983Z,20.89
2022-09-10T09:12:21.923Z,20.89
2022-09-10T09:13:20.964Z,20.90
2022-09-10T09:14:20.945Z,21.04
2022-09-10T09:15:20.934Z,21.26
2022-09-10T09:16:20.922Z,21.50
2022-09-10T09:17:20.906Z,21.74
2022-09-10T09:18:21.577Z,21.88
2022-09-10T09:19:20.876Z,22.12
2022-09-10T09:20:20.867Z,22.09
2022-09-10T09:21:20.855Z,22.07
2022-09-10T09:22:20.838Z,22.01
2022-09-10T09:23:20.828Z,21.85
2022-09-10T09:24:20.808Z,21.63
2022-09-10T09:25:20.798Z,21.45
2022-09-10T09:26:20.785Z,21.53
2022-09-10T09:27:20.780Z,21.60
2022-09-10T09:28:20.770Z,21.58
2022-09-10T09:29:20.741Z,21.58
2022-09-10T09:30:20.755Z,21.60
2022-09-10T09:31:20.737Z,21.48
2022-09-10T09:32:20.712Z,21.47
2022-09-10T09:33:20.702Z,21.50
2022-09-10T09:34:20.682Z,21.65
2022-09-10T09:35:20.662Z,21.74
2022-09-10T09:36:20.655Z,21.80
2022-09-10T09:37:20.634Z,21.84
2022-09-10T09:38:20.634Z,21.71
2022-09-10T09:39:22.888Z,21.75
2022-09-10T09:40:20.605Z,21.73
2022-09-10T09:41:20.585Z,21.88
2022-09-10T09:42:20.573Z,21.80
2022-09-10T09:43:20.567Z,21.85
2022-09-10T09:44:20.548Z,21.71
2022-09-10T09:45:20.526Z,21.71
2022-09-10T09:46:20.565Z,21.81
2022-09-10T09:47:20.507Z,21.65
2022-09-10T09:48:20.507Z,21.43
2022-09-10T09:49:20.478Z,21.11
2022-09-10T09:50:20.469Z,21.05
2022-09-10T09:51:20.459Z,21.03
2022-09-10T09:52:20.446Z,21.05
2022-09-10T09:53:20.465Z,21.18
2022-09-10T09:54:56.602Z,21.14
2022-09-10T09:55:22.361Z,21.19
2022-09-10T09:56:20.391Z,21.01
2022-09-10T09:57:20.386Z,20.88
2022-09-10T09:58:20.375Z,20.73
2022-09-10T09:59:20.353Z,20.60
2022-09-10T10:00:20.343Z,20.75
2022-09-10T10:01:20.356Z,20.75
2022-09-10T10:02:20.361Z,20.77
2022-09-10T10:03:20.333Z,20.79
2022-09-10T10:04:20.302Z,20.70
2022-09-10T10:05:20.274Z,20.63
2022-09-10T10:06:20.264Z,20.61
2022-09-10T10:07:20.240Z,20.50
2022-09-10T10:08:20.247Z,20.39
2022-09-10T10:09:20.232Z,20.29
2022-09-10T10:10:20.204Z,20.37
2022-09-10T10:11:20.190Z,20.48
2022-09-10T10:12:20.187Z,20.34
2022-09-10T10:13:20.170Z,20.39
2022-09-10T10:14:20.153Z,20.55
2022-09-10T10:15:20.139Z,20.63
2022-09-10T10:16:20.129Z,20.60
2022-09-10T10:17:20.109Z,20.63
2022-09-10T10:18:20.110Z,20.56
2022-09-10T10:19:20.080Z,20.61
2022-09-10T10:20:20.072Z,20.58
2022-09-10T10:21:20.081Z,20.56
2022-09-10T10:22:20.056Z,20.64
2022-09-10T10:23:20.041Z,20.46
2022-09-10T10:24:20.022Z,20.50
2022-09-10T10:25:20.003Z,20.49
2022-09-10T10:26:20.001Z,20.48
2022-09-10T10:27:19.973Z,20.48
2022-09-10T10:28:19.973Z,20.39
2022-09-10T10:29:19.954Z,20.41
2022-09-10T10:30:19.953Z,20.39
2022-09-10T10:31:19.979Z,20.53
2022-09-10T10:32:19.915Z,20.73
2022-09-10T10:33:19.907Z,21.01
2022-09-10T10:34:19.886Z,21.11
2022-09-10T10:35:19.869Z,21.28
2022-09-10T10:36:19.876Z,21.28
2022-09-10T10:37:19.849Z,21.34
2022-09-10T10:38:19.837Z,21.28
2022-09-10T10:39:19.827Z,21.50
2022-09-10T10:40:19.808Z,21.63
2022-09-10T10:41:19.797Z,21.56
2022-09-10T10:42:19.780Z,21.50
2022-09-10T10:43:19.780Z,21.41
2022-09-10T10:44:19.753Z,21.22
2022-09-10T10:45:19.750Z,21.14
2022-09-10T10:46:19.764Z,21.11
2022-09-10T10:47:19.721Z,20.97
2022-09-10T10:48:20.654Z,20.86
2022-09-10T10:49:19.688Z,20.92
2022-09-10T10:50:19.680Z,20.93
2022-09-10T10:51:19.662Z,21.00
2022-09-10T10:52:19.643Z,20.97
2022-09-10T10:53:19.646Z,20.73
2022-09-10T10:54:19.621Z,20.63
2022-09-10T10:55:19.604Z,20.58
2022-09-10T10:56:19.595Z,20.52
2022-09-10T10:57:19.593Z,20.63
2022-09-10T10:58:19.567Z,20.74
2022-09-10T10:59:19.556Z,20.75
2022-09-10T11:00:19.537Z,20.85
2022-09-10T11:01:19.569Z,20.85
2022-09-10T11:02:19.540Z,20.92
2022-09-10T11:03:19.516Z,21.07
2022-09-10T11:04:19.486Z,21.19
2022-09-10T11:05:19.478Z,21.28
2022-09-10T11:06:19.459Z,21.47
2022-09-10T11:07:19.449Z,21.73
2022-09-10T11:08:19.440Z,21.93
2022-09-10T11:09:19.420Z,22.18
2022-09-10T11:10:19.401Z,22.51
2022-09-10T11:11:19.391Z,22.91
2022-09-10T11:12:19.381Z,23.13
2022-09-10T11:13:19.380Z,23.49
2022-09-10T11:14:19.353Z,23.91
2022-09-10T11:15:19.343Z,24.08
2022-09-10T11:16:19.322Z,24.16
2022-09-10T11:17:19.313Z,24.01
2022-09-10T11:18:19.303Z,23.98
2022-09-10T11:19:19.284Z,23.74
2022-09-10T11:20:34.542Z,23.94
2022-09-10T11:21:20.266Z,23.79
2022-09-10T11:22:19.246Z,23.52
2022-09-10T11:23:19.286Z,23.44
2022-09-10T11:24:19.216Z,23.33
2022-09-10T11:25:19.206Z,23.34
2022-09-10T11:26:19.198Z,23.33
2022-09-10T11:27:19.184Z,23.14
2022-09-10T11:28:19.178Z,22.85
2022-09-10T11:29:19.158Z,22.44
2022-09-10T11:30:19.141Z,22.48
2022-09-10T11:31:19.169Z,22.38
2022-09-10T11:32:19.110Z,22.18
2022-09-10T11:33:19.118Z,22.06
2022-09-10T11:34:19.090Z,22.12
2022-09-10T11:35:19.081Z,22.06
2022-09-10T11:36:19.069Z,21.78
2022-09-10T11:37:19.057Z,21.62
2022-09-10T11:38:19.042Z,21.45
2022-09-10T11:39:19.051Z,21.55
2022-09-10T11:40:19.132Z,21.78
2022-09-10T11:41:19.007Z,21.94
2022-09-10T11:42:18.984Z,22.13
2022-09-10T11:43:18.984Z,22.19
2022-09-10T11:44:18.956Z,22.23
2022-09-10T11:45:18.961Z,22.41
2022-09-10T11:46:18.968Z,22.51
2022-09-10T11:47:18.974Z,22.68
2022-09-10T11:48:18.934Z,22.68
2022-09-10T11:49:18.904Z,22.67
2022-09-10T11:50:18.897Z,22.80
2022-09-10T11:51:18.867Z,22.81
2022-09-10T11:52:18.868Z,22.92
2022-09-10T11:53:18.887Z,22.85
2022-09-10T11:54:18.837Z,22.86
2022-09-10T11:55:18.829Z,23.07
2022-09-10T11:56:18.790Z,23.01
2022-09-10T11:57:18.797Z,22.95
2022-09-10T11:58:19.737Z,22.91
2022-09-10T11:59:18.785Z,22.89
2022-09-10T12:00:18.785Z,22.99
2022-09-10T12:01:18.735Z,23.08
2022-09-10T12:02:18.857Z,23.08
2022-09-10T12:03:18.746Z,23.04
2022-09-10T12:04:18.702Z,22.89
2022-09-10T12:05:18.686Z,22.89
2022-09-10T12:06:18.664Z,22.81
2022-09-10T12:07:18.664Z,22.68
2022-09-10T12:08:18.644Z,22.55
2022-09-10T12:09:18.627Z,22.46
2022-09-10T12:10:18.615Z,22.31
2022-09-10T12:11:18.605Z,22.12
2022-09-10T12:12:18.593Z,21.97
2022-09-10T12:13:18.582Z,21.81
2022-09-10T12:14:18.558Z,21.71
2022-09-10T12:15:18.548Z,21.59
2022-09-10T12:16:18.580Z,21.48
2022-09-10T12:17:18.537Z,21.34
2022-09-10T12:18:18.518Z,21.14
2022-09-10T12:19:18.501Z,21.03
2022-09-10T12:20:18.488Z,20.93
2022-09-10T12:21:18.470Z,20.85
2022-09-10T12:22:18.460Z,20.71
2022-09-10T12:23:18.440Z,20.58
2022-09-10T12:24:18.427Z,20.55
2022-09-10T12:25:18.418Z,20.33
2022-09-10T12:26:18.431Z,20.17
2022-09-10T12:27:18.393Z,19.99
2022-09-10T12:28:18.619Z,19.87
2022-09-10T12:29:18.373Z,19.68
2022-09-10T12:30:18.342Z,19.60
2022-09-10T12:31:18.357Z,19.50
2022-09-10T12:32:18.347Z,19.44
2022-09-10T12:33:18.315Z,19.42
2022-09-10T12:34:18.294Z,19.41
2022-09-10T12:35:18.285Z,19.32
2022-09-10T12:36:18.265Z,19.35
2022-09-10T12:37:18.275Z,19.27
2022-09-10T12:38:18.237Z,19.24
2022-09-10T12:39:18.228Z,19.23
2022-09-10T12:40:18.322Z,19.17
2022-09-10T12:41:18.207Z,19.13
2022-09-10T12:42:18.198Z,19.05
2022-09-10T12:43:18.178Z,18.94
2022-09-10T12:44:18.159Z,18.81
2022-09-10T12:45:18.160Z,18.79
2022-09-10T12:46:18.161Z,18.78
2022-09-10T12:47:18.131Z,18.70
2022-09-10T12:48:18.111Z,18.70
2022-09-10T12:49:18.100Z,18.66
2022-09-10T12:50:18.080Z,18.56
2022-09-10T12:51:18.089Z,18.41
2022-09-10T12:52:18.061Z,18.36
2022-09-10T12:53:18.042Z,18.34